Airfield :
LOGIN :

Register | Disclaimer

   EN    FR    IT 

 










Legend :    VFR   Marginal VFR   IFR   Intensive IFR   Very Intensive IFR
Visi :
Ceiling :
>= 8 km
>= 3000ft
5 to 8 km
1000 to 3000 ft
1500m to 5 km
500 to 1000 ft
800 to 1500m
200 to 500 ft
< 800m
< 200 ft
Symbols :   Thunderstorms  Fog  Heavy snow  Heavy precipitations  Wind > 20 kt
SIGMETs :     Misc.  Thunderstorms  Icing  Turbulence  Mountain Waves  Volcanic Ashes






- Airport Elevation : 32 ft
- IATA code : LKZ


EGUL - RAF Lakenheath

CURRENT METAR :
  • 251611Z AUTO 31006KT 9999 OVC007 08/08 A2992 RMK AO2 SLP136 $

EXPIRED METARs :
  • 251556Z AUTO 29008KT 9999 OVC006 09/09 A2992 RMK AO2 DZB03E06RAB06E15DZB15E17 SLP136 P//// T00850085 $
  • 251542Z AUTO 31007KT 9999 OVC006 09/09 A2991 RMK AO2 DZB03E06RAB06E15DZB15E17 PRESRR SLP132 $
  • 251517Z AUTO 32006KT 9999 OVC005 09/09 A2988 RMK AO2 DZB03E06RAB06E15DZB15E17 SLP122 $
  • 251503Z AUTO 32006KT 9999 -DZ OVC005 09/09 A2988 RMK AO2 DZB03 OVC V BKN SLP122 $
  • 251456Z AUTO 31008KT 9999 BKN005 OVC010 09/09 A2987 RMK AO2 RAB29E30DZB30E53 SLP119 P//// 60000 T00930093 50010 $
  • 251446Z AUTO 30011KT 9999 -DZ BKN005 BKN010 OVC017 10/10 A2986 RMK AO2 RAB29E30DZB30 CIG 005V017 BKN005 V SCT SLP115 $
  • 251441Z AUTO 30011KT 9999 -DZ BKN005 BKN009 OVC017 10/10 A2986 RMK AO2 RAB29E30DZB30 CIG 005V017 SLP115 $
  • 251411Z AUTO 19006KT 9999 BKN016 BKN040 12/12 A2984 RMK AO2 CIG 016V040 BKN016 V SCT SLP108 $
  • 251356Z AUTO 19006KT 9999 FEW012 BKN040 12/12 A2984 RMK AO2 SLP108 T01230123 $
  • 251351Z AUTO 19006KT 9999 SCT012 BKN043 12/12 A2984 RMK AO2 SLP108 $

TAF AMD TAF EGUL
Valid from the 25 at 12:00 until the 26 at 11:00 UTC


251243Z 2512/2611 19012G20KT 8000 -SHRA OVC010 QNH2984INS
TEMPO 2512/2515 5000 SHRA
BECMG 2517/2518 29010G15KT 8000 -SHRA BKN015 QNH2996INS
BECMG 2519/2520 29006KT 9999 NSW SCT020 QNH2999INS
BECMG 2600/2601 29004KT 5000 BR FEW110 QNH3010INS
BECMG 2609/2610 28004KT 9999 NSW FEW160 QNH3017INS TX14/2514Z TN01/2604Z LAST NO AMDS AFT 2513 NEXT 3004



MET'MAP, your aeronautical weather chart ! - Copyright ORBIFLY December 2007 - Disclaimer

ORBIFLY MET'MAP TEAM :

Programming & Development : Alexandra Zaïnal
Concept & original design : Baudouin d'Aumeries
Assistance for programming : Marc-Olivier Méhu
Technical & hardware support : Manuel Goepfert

Contact : metmap@orbifly.com




SOURCES & CREDITS :

   NOAA